Terminal Aerodrome Forecast
Issued by NWS

Home | Current Version | Previous Version | Text Only | Print | Product List | Glossary On
Versions: 1 2 3 4 5 6 7 8 9 10 11 12 13 14
000
FTUS43 KILX 260319 AAA
TAFCMI
TAF AMD
KCMI 260319Z 2603/2624 16014KT P6SM BKN200
     FM260600 17015KT P6SM OVC060
     FM261200 18011KT P6SM VCTS BKN035CB
     FM261800 19012G20KT 6SM -SHRA VCTS BKN030CB
     FM262300 19012G18KT 5SM SHRA VCTS OVC025CB=

USA.gov is the U.S. government's official web portal to all federal, state and local government web resources and services.